createdAt,value
2022-12-25T00:01:36.023Z,100825.69
2022-12-25T00:04:38.037Z,100831.62
2022-12-25T00:07:39.922Z,100835.19
2022-12-25T00:10:45.184Z,100848.94
2022-12-25T00:13:47.639Z,100831.53
2022-12-25T00:16:49.557Z,100842.69
2022-12-25T00:19:51.441Z,100830.75
2022-12-25T00:22:53.313Z,100834.81
2022-12-25T00:25:55.235Z,100848.75
2022-12-25T00:28:57.754Z,100857.09
2022-12-25T00:31:59.683Z,100859.47
2022-12-25T00:35:01.650Z,100864.06
2022-12-25T00:38:03.741Z,100871.31
2022-12-25T00:41:06.565Z,100880.19
2022-12-25T00:44:09.299Z,100876.28
2022-12-25T00:47:11.187Z,100873.75
2022-12-25T00:50:13.175Z,100878.78
2022-12-25T00:53:15.093Z,100884.13
2022-12-25T00:56:18.027Z,100888.88
2022-12-25T00:59:19.943Z,100895.50
2022-12-25T01:02:25.036Z,100896.69
2022-12-25T01:05:27.130Z,100892.66
2022-12-25T01:08:30.186Z,100896.44
2022-12-25T01:11:32.313Z,100894.72
2022-12-25T01:14:34.257Z,100900.84
2022-12-25T01:17:36.238Z,100891.88
2022-12-25T01:20:38.117Z,100900.22
2022-12-25T01:23:40.044Z,100903.66
2022-12-25T01:26:41.904Z,100904.22
2022-12-25T01:29:43.966Z,100908.25
2022-12-25T01:32:46.007Z,100920.34
2022-12-25T01:35:47.916Z,100919.69
2022-12-25T01:38:49.854Z,100905.81
2022-12-25T01:41:51.779Z,100905.97
2022-12-25T01:44:53.678Z,100921.94
2022-12-25T01:47:55.535Z,100928.63
2022-12-25T01:50:58.611Z,100932.53
2022-12-25T01:54:01.658Z,100917.66
2022-12-25T01:57:04.371Z,100918.50
2022-12-25T02:00:07.202Z,100906.25
2022-12-25T02:03:09.247Z,100907.69
2022-12-25T02:06:11.196Z,100911.31
2022-12-25T02:09:13.100Z,100916.88
2022-12-25T02:12:17.270Z,100907.44
2022-12-25T02:15:20.304Z,100910.63
2022-12-25T02:18:42.430Z,100906.97
2022-12-25T02:21:44.325Z,100917.47
2022-12-25T02:24:55.263Z,100905.06
2022-12-25T02:28:15.853Z,100912.97
2022-12-25T02:31:32.823Z,100912.34
2022-12-25T02:34:48.388Z,100923.88
2022-12-25T02:37:52.174Z,100925.37
2022-12-25T02:40:57.964Z,100936.34
2022-12-25T02:44:18.602Z,100932.28
2022-12-25T02:47:39.079Z,100939.25
2022-12-25T02:50:59.467Z,100933.09
2022-12-25T02:54:20.810Z,100936.28
2022-12-25T02:57:41.932Z,100933.81
2022-12-25T03:01:03.244Z,100937.28
2022-12-25T03:04:24.687Z,100946.56
2022-12-25T03:07:27.230Z,100962.69
2022-12-25T03:10:47.893Z,100951.06
2022-12-25T03:13:50.399Z,100966.66
2022-12-25T03:16:53.932Z,100964.25
2022-12-25T03:20:14.688Z,100973.34
2022-12-25T03:23:36.663Z,100976.78
2022-12-25T03:26:56.834Z,100974.12
2022-12-25T03:30:17.263Z,100972.16
2022-12-25T03:33:45.009Z,100968.75
2022-12-25T03:37:10.403Z,100971.47
2022-12-25T03:40:31.006Z,100981.84
2022-12-25T03:43:58.412Z,100972.66
2022-12-25T03:47:20.926Z,100993.66
2022-12-25T03:51:01.444Z,100993.13
2022-12-25T03:54:23.271Z,100989.75
2022-12-25T03:57:43.703Z,101001.81
2022-12-25T04:01:04.435Z,101006.87
2022-12-25T04:04:24.990Z,101000.03
2022-12-25T04:07:45.241Z,101005.53
2022-12-25T04:11:05.435Z,101006.56
2022-12-25T04:14:26.000Z,101005.50
2022-12-25T04:17:46.439Z,100990.13
2022-12-25T04:21:07.150Z,100986.37
2022-12-25T04:24:28.597Z,100990.03
2022-12-25T04:27:49.418Z,100984.88
2022-12-25T04:31:09.801Z,100986.78
2022-12-25T04:34:30.535Z,101007.63
2022-12-25T04:37:32.407Z,101010.47
2022-12-25T04:40:34.229Z,101009.34
2022-12-25T04:43:36.189Z,100980.53
2022-12-25T04:46:38.200Z,100993.88
2022-12-25T04:49:40.277Z,100991.19
2022-12-25T04:52:42.251Z,100971.91
2022-12-25T04:55:44.358Z,100991.28
2022-12-25T04:58:46.634Z,100992.25
2022-12-25T05:01:48.564Z,101008.47
2022-12-25T05:04:50.571Z,101003.06
2022-12-25T05:07:52.484Z,101003.34
2022-12-25T05:10:54.347Z,101010.53
2022-12-25T05:13:57.027Z,101008.34
2022-12-25T05:16:59.023Z,101015.69
2022-12-25T05:20:00.854Z,101028.47
2022-12-25T05:23:02.744Z,101028.41
2022-12-25T05:26:07.596Z,101019.87
2022-12-25T05:29:09.439Z,101012.22
2022-12-25T05:32:11.479Z,101012.72
2022-12-25T05:35:13.362Z,101012.72
2022-12-25T05:38:15.241Z,101018.00
2022-12-25T05:41:17.137Z,101020.13
2022-12-25T05:44:18.972Z,101026.22
2022-12-25T05:47:20.828Z,101036.56
2022-12-25T05:50:22.683Z,101034.38
2022-12-25T05:53:24.640Z,101041.75
2022-12-25T05:56:26.628Z,101031.69
2022-12-25T05:59:32.316Z,101053.16
2022-12-25T06:02:35.408Z,101055.84
2022-12-25T06:05:38.943Z,101058.94
2022-12-25T06:08:41.657Z,101048.97
2022-12-25T06:11:43.492Z,101039.25
2022-12-25T06:14:45.396Z,101048.09
2022-12-25T06:17:47.329Z,101045.62
2022-12-25T06:20:49.195Z,101038.09
2022-12-25T06:23:51.214Z,101048.44
2022-12-25T06:26:53.193Z,101042.50
2022-12-25T06:29:55.087Z,101056.22
2022-12-25T06:32:57.058Z,101057.47
2022-12-25T06:35:59.083Z,101063.38
2022-12-25T06:39:01.203Z,101073.97
2022-12-25T06:42:03.118Z,101070.56
2022-12-25T06:45:05.379Z,101070.09
2022-12-25T06:48:07.305Z,101069.09
2022-12-25T06:51:09.215Z,101071.13
2022-12-25T06:54:11.328Z,101081.81
2022-12-25T06:57:13.186Z,101080.66
2022-12-25T07:00:15.225Z,101084.75
2022-12-25T07:03:17.834Z,101091.75
2022-12-25T07:06:19.817Z,101093.09
2022-12-25T07:09:21.863Z,101091.53
2022-12-25T07:12:24.270Z,101097.31
2022-12-25T07:15:26.207Z,101099.53
2022-12-25T07:18:28.196Z,101114.50
2022-12-25T07:21:30.146Z,101128.41
2022-12-25T07:24:31.992Z,101125.94
2022-12-25T07:27:33.843Z,101135.44
2022-12-25T07:30:35.726Z,101134.87
2022-12-25T07:33:37.671Z,101142.09
2022-12-25T07:36:39.561Z,101140.62
2022-12-25T07:39:41.565Z,101136.13
2022-12-25T07:42:43.547Z,101143.13
2022-12-25T07:45:45.490Z,101154.66
2022-12-25T07:48:47.465Z,101155.66
2022-12-25T07:51:49.303Z,101159.31
2022-12-25T07:54:51.257Z,101142.53
2022-12-25T07:57:53.265Z,101157.31
2022-12-25T08:00:55.378Z,101154.75
2022-12-25T08:03:58.416Z,101171.28
2022-12-25T08:07:00.312Z,101169.09
2022-12-25T08:10:02.885Z,101167.28
2022-12-25T08:13:09.041Z,101175.28
2022-12-25T08:16:14.330Z,101172.28
2022-12-25T08:19:16.215Z,101175.50
2022-12-25T08:22:18.109Z,101175.72
2022-12-25T08:25:19.988Z,101169.06
2022-12-25T08:28:21.869Z,101175.66
2022-12-25T08:31:24.988Z,101179.16
2022-12-25T08:34:26.991Z,101183.00
2022-12-25T08:37:31.640Z,101188.47
2022-12-25T08:40:33.590Z,101190.84
2022-12-25T08:43:35.637Z,101194.44
2022-12-25T08:46:39.901Z,101186.66
2022-12-25T08:49:41.830Z,101189.19
2022-12-25T08:52:43.864Z,101199.91
2022-12-25T08:55:45.931Z,101195.47
2022-12-25T08:58:47.886Z,101195.69
2022-12-25T09:01:49.921Z,101191.34
2022-12-25T09:04:51.947Z,101197.72
2022-12-25T09:07:53.960Z,101199.06
2022-12-25T09:10:56.272Z,101199.37
2022-12-25T09:13:58.124Z,101204.94
2022-12-25T09:16:59.961Z,101197.78
2022-12-25T09:20:02.079Z,101199.37
2022-12-25T09:23:08.495Z,101189.87
2022-12-25T09:26:15.177Z,101185.28
2022-12-25T09:29:17.971Z,101196.97
2022-12-25T09:32:19.971Z,101193.34
2022-12-25T09:35:21.875Z,101195.59
2022-12-25T09:38:23.750Z,101200.00
2022-12-25T09:41:25.681Z,101192.09
2022-12-25T09:44:38.394Z,101188.31
2022-12-25T09:47:40.566Z,101193.81
2022-12-25T09:50:42.468Z,101196.25
2022-12-25T09:53:46.125Z,101192.97
2022-12-25T09:56:47.985Z,101186.16
2022-12-25T09:59:51.423Z,101193.41
2022-12-25T10:03:00.240Z,101194.59
2022-12-25T10:06:17.770Z,101188.81
2022-12-25T10:09:34.993Z,101186.72
2022-12-25T10:12:36.819Z,101183.97
2022-12-25T10:15:59.128Z,101187.94
2022-12-25T10:19:05.153Z,101181.38
2022-12-25T10:22:21.388Z,101177.84
2022-12-25T10:25:24.104Z,101180.06
2022-12-25T10:28:27.122Z,101173.41
2022-12-25T10:31:29.640Z,101173.69
2022-12-25T10:34:32.435Z,101169.03
2022-12-25T10:37:34.308Z,101164.78
2022-12-25T10:40:45.351Z,101156.84
2022-12-25T10:43:51.596Z,101153.41
2022-12-25T10:46:57.280Z,101158.38
2022-12-25T10:49:59.503Z,101157.72
2022-12-25T10:53:04.473Z,101154.69
2022-12-25T10:56:06.508Z,101158.63
2022-12-25T10:59:09.608Z,101151.75
2022-12-25T11:02:16.373Z,101157.19
2022-12-25T11:05:36.397Z,101149.63
2022-12-25T11:08:38.239Z,101150.34
2022-12-25T11:11:40.458Z,101139.66
2022-12-25T11:14:51.475Z,101140.41
2022-12-25T11:17:53.377Z,101127.88
2022-12-25T11:20:59.461Z,101128.41
2022-12-25T11:24:05.207Z,101126.81
2022-12-25T11:27:07.231Z,101119.47
2022-12-25T11:30:15.863Z,101111.16
2022-12-25T11:33:18.003Z,101115.13
2022-12-25T11:36:28.838Z,101103.00
2022-12-25T11:39:40.423Z,101113.53
2022-12-25T11:42:44.357Z,101109.44
2022-12-25T11:45:51.195Z,101109.97
2022-12-25T11:48:57.775Z,101109.88
2022-12-25T11:51:59.723Z,101108.56
2022-12-25T11:55:03.611Z,101102.25
2022-12-25T11:58:31.935Z,101096.25
2022-12-25T12:01:35.246Z,101091.19
2022-12-25T12:04:43.016Z,101087.75
2022-12-25T12:07:51.072Z,101088.16
2022-12-25T12:11:18.079Z,101080.44
2022-12-25T12:14:23.054Z,101083.56
2022-12-25T12:17:24.942Z,101074.25
2022-12-25T12:20:29.306Z,101067.44
2022-12-25T12:23:33.978Z,101071.72
2022-12-25T12:26:38.142Z,101074.37
2022-12-25T12:29:41.255Z,101078.41
2022-12-25T12:32:43.551Z,101069.28
2022-12-25T12:35:45.432Z,101088.16
2022-12-25T12:38:47.418Z,101087.41
2022-12-25T12:41:49.250Z,101093.16
2022-12-25T12:44:51.144Z,101096.97
2022-12-25T12:47:53.172Z,101100.63
2022-12-25T12:51:05.816Z,101097.84
2022-12-25T12:54:18.173Z,101113.91
2022-12-25T12:57:25.365Z,101115.19
2022-12-25T13:00:28.459Z,101109.78
2022-12-25T13:03:36.512Z,101115.25
2022-12-25T13:06:38.381Z,101114.44
2022-12-25T13:09:58.732Z,101122.03
2022-12-25T13:13:01.307Z,101122.91
2022-12-25T13:16:03.420Z,101126.06
2022-12-25T13:19:06.376Z,101120.41
2022-12-25T13:22:20.026Z,101118.13
2022-12-25T13:25:22.426Z,101118.44
2022-12-25T13:28:31.578Z,101115.88
2022-12-25T13:31:33.498Z,101117.34
2022-12-25T13:34:39.095Z,101118.28
2022-12-25T13:37:41.027Z,101122.41
2022-12-25T13:41:08.051Z,101129.84
2022-12-25T13:44:16.134Z,101117.56
2022-12-25T13:47:22.798Z,101113.03
2022-12-25T13:50:25.990Z,101116.94
2022-12-25T13:53:28.010Z,101119.72
2022-12-25T13:56:30.015Z,101128.22
2022-12-25T13:59:31.916Z,101128.75
2022-12-25T14:02:37.277Z,101128.81
2022-12-25T14:05:42.880Z,101132.63
2022-12-25T14:08:45.441Z,101126.53
2022-12-25T14:11:49.538Z,101127.16
2022-12-25T14:14:51.856Z,101120.53
2022-12-25T14:17:53.773Z,101128.72
2022-12-25T14:20:57.247Z,101137.09
2022-12-25T14:23:59.183Z,101139.97
2022-12-25T14:27:04.910Z,101132.78
2022-12-25T14:30:07.077Z,101130.22
2022-12-25T14:33:09.908Z,101139.88
2022-12-25T14:36:12.504Z,101148.00
2022-12-25T14:39:23.727Z,101149.41
2022-12-25T14:42:29.974Z,101148.44
2022-12-25T14:45:40.788Z,101142.22
2022-12-25T14:48:43.797Z,101156.34
2022-12-25T14:51:45.680Z,101157.00
2022-12-25T14:54:54.600Z,101145.87
2022-12-25T14:58:04.908Z,101147.31
2022-12-25T15:01:06.812Z,101153.56
2022-12-25T15:04:12.224Z,101154.09
2022-12-25T15:07:28.496Z,101155.53
2022-12-25T15:13:52.859Z,101160.34
2022-12-25T15:16:55.779Z,101157.25
2022-12-25T15:19:57.926Z,101160.66
2022-12-25T15:23:19.414Z,101161.69
2022-12-25T15:26:22.006Z,101161.53
2022-12-25T15:29:59.600Z,101165.53
2022-12-25T15:32:45.936Z,101165.72
2022-12-25T15:35:47.881Z,101152.34
2022-12-25T15:38:49.815Z,101165.47
2022-12-25T15:42:10.208Z,101165.22
2022-12-25T15:45:17.794Z,101162.34
2022-12-25T15:48:19.664Z,101176.50
2022-12-25T15:51:21.553Z,101177.94
2022-12-25T15:54:23.483Z,101170.53
2022-12-25T15:57:26.407Z,101162.44
2022-12-25T16:00:28.415Z,101160.50
2022-12-25T16:03:30.400Z,101150.50
2022-12-25T16:06:32.247Z,101172.97
2022-12-25T16:09:34.050Z,101170.88
2022-12-25T16:12:35.906Z,101178.06
2022-12-25T16:15:37.996Z,101168.44
2022-12-25T16:18:46.855Z,101165.50
2022-12-25T16:21:49.517Z,101165.37
2022-12-25T16:24:51.836Z,101168.13
2022-12-25T16:27:53.814Z,101151.47
2022-12-25T16:30:55.663Z,101155.53
2022-12-25T16:33:57.514Z,101156.06
2022-12-25T16:36:59.408Z,101160.25
2022-12-25T16:40:01.407Z,101145.53
2022-12-25T16:43:03.298Z,101142.13
2022-12-25T16:46:08.860Z,101149.81
2022-12-25T16:49:10.777Z,101152.44
2022-12-25T16:52:13.007Z,101153.22
2022-12-25T16:55:14.898Z,101145.47
2022-12-25T16:58:16.865Z,101141.28
2022-12-25T17:01:19.626Z,101137.47
2022-12-25T17:04:21.612Z,101141.06
2022-12-25T17:07:23.498Z,101137.69
2022-12-25T17:10:25.354Z,101135.34
2022-12-25T17:13:27.296Z,101138.25
2022-12-25T17:16:30.515Z,101133.69
2022-12-25T17:19:32.512Z,101133.38
2022-12-25T17:22:34.443Z,101144.06
2022-12-25T17:25:36.818Z,101144.53
2022-12-25T17:28:38.841Z,101134.94
2022-12-25T17:31:40.949Z,101137.81
2022-12-25T17:34:42.903Z,101134.56
2022-12-25T17:37:44.898Z,101133.94
2022-12-25T17:40:55.070Z,101115.34
2022-12-25T17:43:57.075Z,101109.62
2022-12-25T17:46:59.141Z,101105.78
2022-12-25T17:50:01.202Z,101103.00
2022-12-25T17:53:05.234Z,101112.28
2022-12-25T17:56:07.552Z,101114.03
2022-12-25T17:59:14.096Z,101114.75
2022-12-25T18:02:16.171Z,101107.69
2022-12-25T18:05:18.527Z,101117.69
2022-12-25T18:08:20.390Z,101128.59
2022-12-25T18:11:23.914Z,101126.75
2022-12-25T18:14:25.782Z,101120.59
2022-12-25T18:17:28.914Z,101128.87
2022-12-25T18:20:37.649Z,101126.97
2022-12-25T18:23:41.664Z,101125.56
2022-12-25T18:26:43.613Z,101116.06
2022-12-25T18:29:45.700Z,101123.69
2022-12-25T18:32:47.554Z,101116.75
2022-12-25T18:35:49.430Z,101105.56
2022-12-25T18:38:52.026Z,101110.78
2022-12-25T18:42:12.831Z,101103.50
2022-12-25T18:45:15.189Z,101111.03
2022-12-25T18:48:17.067Z,101104.22
2022-12-25T18:51:19.046Z,101105.97
2022-12-25T18:54:20.928Z,101102.69
2022-12-25T18:57:23.137Z,101103.06
2022-12-25T19:00:25.115Z,101101.19
2022-12-25T19:03:27.257Z,101093.63
2022-12-25T19:06:29.374Z,101091.94
2022-12-25T19:09:31.519Z,101090.72
2022-12-25T19:12:33.632Z,101092.50
2022-12-25T19:15:35.857Z,101092.31
2022-12-25T19:18:38.186Z,101080.13
2022-12-25T19:21:40.248Z,101080.69
2022-12-25T19:24:42.336Z,101085.16
2022-12-25T19:27:44.798Z,101083.41
2022-12-25T19:30:46.850Z,101091.25
2022-12-25T19:33:48.836Z,101095.22
2022-12-25T19:36:50.801Z,101096.25
2022-12-25T19:39:52.756Z,101089.38
2022-12-25T19:42:54.568Z,101096.84
2022-12-25T19:45:56.773Z,101099.72
2022-12-25T19:49:04.529Z,101103.91
2022-12-25T19:52:06.567Z,101088.63
2022-12-25T19:55:08.682Z,101080.28
2022-12-25T19:58:10.615Z,101073.53
2022-12-25T20:01:13.565Z,101087.81
2022-12-25T20:04:18.118Z,101081.63
2022-12-25T20:07:20.038Z,101064.94
2022-12-25T20:10:21.912Z,101032.88
2022-12-25T20:13:23.745Z,101031.28
2022-12-25T20:16:26.027Z,101029.81
2022-12-25T20:19:28.083Z,101033.37
2022-12-25T20:22:30.325Z,101039.12
2022-12-25T20:25:32.368Z,101045.78
2022-12-25T20:28:34.896Z,101051.19
2022-12-25T20:31:36.854Z,101063.91
2022-12-25T20:34:38.764Z,101051.69
2022-12-25T20:37:40.702Z,101052.84
2022-12-25T20:41:24.440Z,101042.81
2022-12-25T20:44:06.801Z,101037.25
2022-12-25T20:47:08.971Z,101036.25
2022-12-25T20:50:10.848Z,101046.09
2022-12-25T20:53:12.731Z,101049.22
2022-12-25T20:56:15.876Z,101035.47
2022-12-25T20:59:17.899Z,101040.16
2022-12-25T21:02:34.709Z,101037.53
2022-12-25T21:05:49.799Z,101043.91
2022-12-25T21:08:51.843Z,101036.09
2022-12-25T21:11:53.793Z,101047.69
2022-12-25T21:14:55.688Z,101044.53
2022-12-25T21:17:57.513Z,101039.91
2022-12-25T21:20:59.501Z,101020.84
2022-12-25T21:24:01.595Z,101034.69
2022-12-25T21:27:03.443Z,101032.63
2022-12-25T21:30:15.136Z,101033.94
2022-12-25T21:33:36.137Z,101035.81
2022-12-25T21:36:38.158Z,101026.06
2022-12-25T21:39:40.055Z,101023.44
2022-12-25T21:42:41.959Z,101017.56
2022-12-25T21:45:43.882Z,101026.72
2022-12-25T21:48:45.842Z,101012.59
2022-12-25T21:52:06.568Z,101014.53
2022-12-25T21:55:08.591Z,101014.91
2022-12-25T21:58:10.520Z,101016.28
2022-12-25T22:01:16.506Z,101026.63
2022-12-25T22:04:19.681Z,101045.66
2022-12-25T22:07:21.594Z,101050.44
2022-12-25T22:10:23.472Z,101041.44
2022-12-25T22:13:44.209Z,101042.19
2022-12-25T22:17:04.957Z,101047.56
2022-12-25T22:20:07.980Z,101041.22
2022-12-25T22:23:09.855Z,101040.59
2022-12-25T22:26:17.319Z,101051.56
2022-12-25T22:29:22.446Z,101034.28
2022-12-25T22:32:24.470Z,101030.63
2022-12-25T22:35:26.379Z,101019.75
2022-12-25T22:38:28.213Z,101030.75
2022-12-25T22:41:33.647Z,101025.31
2022-12-25T22:44:35.944Z,101040.50
2022-12-25T22:47:37.903Z,101031.28
2022-12-25T22:50:39.905Z,101030.37
2022-12-25T22:53:41.818Z,101042.47
2022-12-25T22:56:44.395Z,101041.06
2022-12-25T22:59:46.249Z,101029.06
2022-12-25T23:02:48.270Z,101022.78
2022-12-25T23:05:54.193Z,101026.59
2022-12-25T23:08:56.092Z,101009.00
2022-12-25T23:11:58.508Z,101005.97
2022-12-25T23:15:00.399Z,101021.88
2022-12-25T23:18:20.767Z,101026.66
2022-12-25T23:21:41.204Z,101019.00
2022-12-25T23:25:01.749Z,101026.31
2022-12-25T23:28:03.601Z,101018.03
2022-12-25T23:31:05.593Z,101013.34
2022-12-25T23:34:07.738Z,101018.34
2022-12-25T23:37:09.874Z,101016.84
2022-12-25T23:40:11.851Z,101002.25
2022-12-25T23:43:13.778Z,100995.31
2022-12-25T23:46:15.742Z,100993.03
2022-12-25T23:49:17.856Z,100994.69
2022-12-25T23:52:19.739Z,100998.47
2022-12-25T23:55:21.692Z,100993.47
2022-12-25T23:58:24.170Z,100986.84
